Aviation Digital Data Service (ADDS)

Output produced by METARs form (0447 UTC 24 April 2018)
found at http://www.aviationweather.gov/adds/metars/
 
EDDR 240420Z VRB01KT 7000 MIFG BKN036 08/08 Q1019 TEMPO 4000 BCFG
TAF EDDR 232300Z 2400/2424 25005KT CAVOK 
     BECMG 2407/2410 24010KT 
     PROB30 
     TEMPO 2412/2417 27015G25KT 
     BECMG 2419/2421 22005KT
       
ETAR 240356Z AUTO 00000KT 9999 CLR 05/05 A3009 RMK AO2 SLP193 T00520052 $
TAF ETAR 240210Z 2402/2508 VRB06KT 9999 FEW050 QNH3002INS 
     BECMG 2408/2409 25010G15KT 9999 FEW050 QNH2998INS 
     BECMG 2416/2417 25009KT 9999 FEW040 QNH2992INS TX22/2414Z TN04/2404Z